Terminal Aerodrome Forecast
Issued by NWS

Home | Current Version | Previous Version | Graphics & Text | Print | Product List | Glossary On
Versions: 1 2 3 4 5 6 7 8 9 10 11 12 13 14 15 16
233
FTUS43 KOAX 152320
TAFCDR
TAF
KCDR 152320Z 1600/1624 18010KT P6SM BKN250
     FM160800 20010KT P6SM BKN250
     FM161700 24015G23KT P6SM BKN200=

USA.gov is the U.S. government's official web portal to all federal, state and local government web resources and services.